createdAt,value
2022-11-14T00:03:41.300Z,7.40
2022-11-14T00:09:03.217Z,7.60
2022-11-14T00:14:24.753Z,8.90
2022-11-14T00:19:46.687Z,9.57
2022-11-14T00:25:09.636Z,8.90
2022-11-14T00:30:31.005Z,9.73
2022-11-14T00:35:56.323Z,9.00
2022-11-14T00:41:18.036Z,8.90
2022-11-14T00:46:39.489Z,9.07
2022-11-14T00:52:01.083Z,8.50
2022-11-14T00:57:22.489Z,8.77
2022-11-14T01:02:44.125Z,9.63
2022-11-14T01:08:05.826Z,9.10
2022-11-14T01:13:27.739Z,9.63
2022-11-14T01:18:49.530Z,8.57
2022-11-14T01:24:10.806Z,8.60
2022-11-14T01:29:32.216Z,8.00
2022-11-14T01:34:53.834Z,7.37
2022-11-14T01:40:16.139Z,6.50
2022-11-14T01:45:50.293Z,6.17
2022-11-14T01:51:38.014Z,6.47
2022-11-14T01:57:00.894Z,5.83
2022-11-14T02:02:25.263Z,5.07
2022-11-14T02:07:46.688Z,4.57
2022-11-14T02:13:08.720Z,5.10
2022-11-14T02:18:30.617Z,4.90
2022-11-14T02:23:52.711Z,4.47
2022-11-14T02:29:14.300Z,4.90
2022-11-14T02:34:35.938Z,4.90
2022-11-14T02:39:57.425Z,5.10
2022-11-14T02:45:21.049Z,5.10
2022-11-14T02:50:43.167Z,4.83
2022-11-14T02:56:07.624Z,4.90
2022-11-14T03:01:29.343Z,4.50
2022-11-14T03:06:50.943Z,4.30
2022-11-14T03:12:13.779Z,4.73
2022-11-14T03:17:35.685Z,4.70
2022-11-14T03:22:57.321Z,5.00
2022-11-14T03:28:19.035Z,6.00
2022-11-14T03:33:40.584Z,5.30
2022-11-14T03:39:02.063Z,5.50
2022-11-14T03:44:23.701Z,5.23
2022-11-14T03:49:45.517Z,5.93
2022-11-14T03:55:07.381Z,6.40
2022-11-14T04:00:29.576Z,6.03
2022-11-14T04:05:51.728Z,6.07
2022-11-14T04:11:13.231Z,5.80
2022-11-14T04:16:34.704Z,5.87
2022-11-14T04:21:56.446Z,6.13
2022-11-14T04:27:18.149Z,7.00
2022-11-14T04:32:39.850Z,7.03
2022-11-14T04:38:01.081Z,7.53
2022-11-14T04:43:22.674Z,8.00
2022-11-14T04:48:44.166Z,8.00
2022-11-14T04:54:05.801Z,7.73
2022-11-14T04:59:27.541Z,8.47
2022-11-14T05:04:49.047Z,8.40
2022-11-14T05:10:10.331Z,8.30
2022-11-14T05:15:32.011Z,8.97
2022-11-14T05:20:53.888Z,10.10
2022-11-14T05:26:17.891Z,9.73
2022-11-14T05:31:39.744Z,9.57
2022-11-14T05:37:01.481Z,11.60
2022-11-14T05:42:23.133Z,10.83
2022-11-14T05:47:44.974Z,10.67
2022-11-14T05:53:06.595Z,11.27
2022-11-14T05:58:28.291Z,13.40
2022-11-14T06:03:49.934Z,12.87
2022-11-14T06:09:11.822Z,12.33
2022-11-14T06:14:34.164Z,12.60
2022-11-14T06:19:55.519Z,13.00
2022-11-14T06:25:16.740Z,14.43
2022-11-14T06:30:39.395Z,14.63
2022-11-14T06:36:02.280Z,14.77
2022-11-14T06:41:23.958Z,15.00
2022-11-14T06:46:45.472Z,14.90
2022-11-14T06:52:06.853Z,15.10
2022-11-14T06:57:28.350Z,14.23
2022-11-14T07:02:50.301Z,14.00
2022-11-14T07:08:13.325Z,14.80
2022-11-14T07:13:36.652Z,15.27
2022-11-14T07:18:59.061Z,16.00
2022-11-14T07:24:20.582Z,16.47
2022-11-14T07:29:41.834Z,17.87
2022-11-14T07:35:03.334Z,17.00
2022-11-14T07:40:24.777Z,17.33
2022-11-14T07:45:46.353Z,16.87
2022-11-14T07:51:10.740Z,17.17
2022-11-14T07:56:32.013Z,19.80
2022-11-14T08:01:53.287Z,17.10
2022-11-14T08:07:14.730Z,17.43
2022-11-14T08:12:36.195Z,15.90
2022-11-14T08:17:58.917Z,16.27
2022-11-14T08:23:20.343Z,15.73
2022-11-14T08:28:41.996Z,15.73
2022-11-14T08:34:03.232Z,17.17
2022-11-14T08:39:24.689Z,17.37
2022-11-14T08:44:50.840Z,17.70
2022-11-14T08:50:13.588Z,17.33
2022-11-14T08:55:35.314Z,18.33
2022-11-14T09:01:04.358Z,19.40
2022-11-14T09:06:25.957Z,19.07
2022-11-14T09:11:47.350Z,20.27
2022-11-14T09:17:09.072Z,20.17
2022-11-14T09:22:31.596Z,19.27
2022-11-14T09:27:53.824Z,19.33
2022-11-14T09:33:15.782Z,17.37
2022-11-14T09:38:38.702Z,17.00
2022-11-14T09:44:23.431Z,15.63
2022-11-14T09:49:46.073Z,16.07
2022-11-14T09:55:11.787Z,15.80
2022-11-14T10:00:52.550Z,11.23
2022-11-14T10:06:27.012Z,9.87
2022-11-14T10:11:56.262Z,9.73
2022-11-14T10:17:20.874Z,9.33
2022-11-14T10:23:01.001Z,9.17
2022-11-14T10:28:33.560Z,9.40
2022-11-14T10:34:21.957Z,10.50
2022-11-14T10:39:49.598Z,9.73
2022-11-14T10:45:24.247Z,9.27
2022-11-14T10:51:05.970Z,10.63
2022-11-14T10:56:27.388Z,9.37
2022-11-14T11:01:54.096Z,10.10
2022-11-14T11:07:38.461Z,11.50
2022-11-14T11:13:00.276Z,12.27
2022-11-14T11:18:29.586Z,12.37
2022-11-14T11:23:56.603Z,13.60
2022-11-14T11:29:20.672Z,14.07
2022-11-14T11:34:42.059Z,17.13
2022-11-14T11:40:05.700Z,14.23
2022-11-14T11:45:27.958Z,14.40
2022-11-14T11:50:50.438Z,15.43
2022-11-14T11:56:18.329Z,17.03
2022-11-14T12:01:40.163Z,15.83
2022-11-14T12:07:12.184Z,16.53
2022-11-14T12:12:52.986Z,16.40
2022-11-14T12:18:33.149Z,16.87
2022-11-14T12:24:38.273Z,17.03
2022-11-14T12:30:22.339Z,20.80
2022-11-14T12:35:52.046Z,17.57
2022-11-14T12:41:21.566Z,27.60
2022-11-14T12:47:05.619Z,19.90
2022-11-14T12:52:48.916Z,17.27
2022-11-14T12:58:43.071Z,18.40
2022-11-14T13:04:25.856Z,16.77
2022-11-14T13:10:12.756Z,17.83
2022-11-14T13:16:04.761Z,19.63
2022-11-14T13:21:47.225Z,21.87
2022-11-14T13:27:52.141Z,19.70
2022-11-14T13:33:10.914Z,18.20
2022-11-14T13:39:00.568Z,18.57
2022-11-14T13:44:31.239Z,18.50
2022-11-14T13:49:59.476Z,20.50
2022-11-14T13:55:23.306Z,16.63
2022-11-14T14:00:57.830Z,16.10
2022-11-14T14:06:34.709Z,17.67
2022-11-14T14:12:08.979Z,20.57
2022-11-14T14:17:43.644Z,17.40
2022-11-14T14:23:40.777Z,19.60
2022-11-14T14:29:50.589Z,17.27
2022-11-14T14:35:28.063Z,17.03
2022-11-14T14:40:49.971Z,19.00
2022-11-14T14:46:12.063Z,19.20
2022-11-14T14:51:36.566Z,21.40
2022-11-14T14:57:03.735Z,21.00
2022-11-14T15:02:26.437Z,21.50
2022-11-14T15:07:50.431Z,21.30
2022-11-14T15:13:16.133Z,21.90
2022-11-14T15:18:38.066Z,23.80
2022-11-14T15:24:02.632Z,24.93
2022-11-14T15:29:28.052Z,24.90
2022-11-14T15:35:13.929Z,28.93
2022-11-14T15:40:39.459Z,32.83
2022-11-14T15:46:01.869Z,32.93
2022-11-14T15:51:44.183Z,29.43
2022-11-14T15:57:17.066Z,45.30
2022-11-14T16:02:46.504Z,29.97
2022-11-14T16:08:12.395Z,36.80
2022-11-14T16:13:35.348Z,29.23
2022-11-14T16:18:58.718Z,28.43
2022-11-14T16:24:23.368Z,111.37
2022-11-14T16:29:45.671Z,27.63
2022-11-14T16:35:13.738Z,27.03
2022-11-14T16:40:36.652Z,27.10
2022-11-14T16:45:59.247Z,30.57
2022-11-14T16:51:46.997Z,30.10
2022-11-14T16:57:06.790Z,28.77
2022-11-14T17:02:28.542Z,31.00
2022-11-14T17:07:50.902Z,30.90
2022-11-14T17:13:14.950Z,29.53
2022-11-14T17:18:38.795Z,32.77
2022-11-14T17:24:03.330Z,31.00
2022-11-14T17:29:25.508Z,31.93
2022-11-14T17:34:47.424Z,35.53
2022-11-14T17:40:14.292Z,30.83
2022-11-14T17:45:41.077Z,31.83
2022-11-14T17:51:07.564Z,28.03
2022-11-14T17:56:28.864Z,29.13
2022-11-14T18:01:50.935Z,28.93
2022-11-14T18:07:13.123Z,30.47
2022-11-14T18:12:34.776Z,28.17
2022-11-14T18:17:57.869Z,30.53
2022-11-14T18:23:19.850Z,30.37
2022-11-14T18:28:42.351Z,28.47
2022-11-14T18:34:04.493Z,31.87
2022-11-14T18:39:26.800Z,33.10
2022-11-14T18:44:49.006Z,29.67
2022-11-14T18:50:11.337Z,30.20
2022-11-14T18:55:32.879Z,27.63
2022-11-14T19:00:55.142Z,29.63
2022-11-14T19:06:17.533Z,29.87
2022-11-14T19:12:04.137Z,31.40
2022-11-14T19:17:26.937Z,32.77
2022-11-14T19:22:48.886Z,31.00
2022-11-14T19:28:11.373Z,30.53
2022-11-14T19:33:34.572Z,32.30
2022-11-14T19:38:58.489Z,32.60
2022-11-14T19:44:23.332Z,30.17
2022-11-14T19:49:47.798Z,29.07
2022-11-14T19:55:09.844Z,31.87
2022-11-14T20:00:31.811Z,31.67
2022-11-14T20:05:54.085Z,32.43
2022-11-14T20:11:16.846Z,31.10
2022-11-14T20:16:39.077Z,35.27
2022-11-14T20:22:01.033Z,33.33
2022-11-14T20:27:23.193Z,31.80
2022-11-14T20:32:45.473Z,31.57
2022-11-14T20:38:07.835Z,32.97
2022-11-14T20:43:30.256Z,32.43
2022-11-14T20:48:51.915Z,34.93
2022-11-14T20:54:13.697Z,34.93
2022-11-14T20:59:35.085Z,32.93
2022-11-14T21:04:56.795Z,35.70
2022-11-14T21:10:36.943Z,32.60
2022-11-14T21:15:59.742Z,33.63
2022-11-14T21:21:23.852Z,34.27
2022-11-14T21:26:45.390Z,33.20
2022-11-14T21:32:06.687Z,35.63
2022-11-14T21:37:28.416Z,36.13
2022-11-14T21:42:50.301Z,32.47
2022-11-14T21:48:11.925Z,34.23
2022-11-14T21:53:34.645Z,32.60
2022-11-14T21:59:16.430Z,34.93
2022-11-14T22:04:38.185Z,33.47
2022-11-14T22:10:00.072Z,34.90
2022-11-14T22:15:21.563Z,34.43
2022-11-14T22:20:43.380Z,31.93
2022-11-14T22:26:05.247Z,33.27
2022-11-14T22:31:26.654Z,33.03
2022-11-14T22:36:48.810Z,32.93
2022-11-14T22:42:10.924Z,32.03
2022-11-14T22:47:33.126Z,29.03
2022-11-14T22:52:54.821Z,32.27
2022-11-14T22:58:16.628Z,31.83
2022-11-14T23:03:38.860Z,32.90
2022-11-14T23:09:01.288Z,32.43
2022-11-14T23:14:23.359Z,35.00
2022-11-14T23:19:45.165Z,30.87
2022-11-14T23:25:07.661Z,27.90
2022-11-14T23:30:29.533Z,28.57
2022-11-14T23:35:51.259Z,29.53
2022-11-14T23:41:17.145Z,29.53
2022-11-14T23:46:38.775Z,30.87
2022-11-14T23:52:00.487Z,30.27
2022-11-14T23:57:22.049Z,30.73
